createdAt,value
2022-08-07T00:02:36.624Z,3.17
2022-08-07T00:05:29.328Z,2.70
2022-08-07T00:08:32.607Z,2.97
2022-08-07T00:11:48.114Z,3.10
2022-08-07T00:14:59.330Z,2.83
2022-08-07T00:18:02.305Z,2.90
2022-08-07T00:21:08.298Z,3.15
2022-08-07T00:24:31.735Z,2.75
2022-08-07T00:27:52.533Z,2.97
2022-08-07T00:30:57.029Z,2.30
2022-08-07T00:33:59.999Z,3.10
2022-08-07T00:37:04.932Z,2.67
2022-08-07T00:40:10.906Z,2.88
2022-08-07T00:44:01.111Z,2.80
2022-08-07T00:46:40.041Z,2.80
2022-08-07T00:50:21.486Z,3.05
2022-08-07T00:53:06.630Z,2.50
2022-08-07T00:56:15.449Z,3.08
2022-08-07T00:59:20.347Z,2.70
2022-08-07T01:02:38.574Z,2.80
2022-08-07T01:05:43.327Z,3.22
2022-08-07T01:08:59.435Z,2.60
2022-08-07T01:12:27.773Z,2.85
2022-08-07T01:16:00.531Z,3.60
2022-08-07T01:18:50.663Z,2.80
2022-08-07T01:21:55.382Z,3.15
2022-08-07T01:25:05.138Z,2.88
2022-08-07T01:28:26.953Z,2.95
2022-08-07T01:31:42.349Z,2.77
2022-08-07T01:34:50.096Z,2.97
2022-08-07T01:37:54.551Z,2.53
2022-08-07T01:40:59.752Z,2.97
2022-08-07T01:44:03.617Z,2.85
2022-08-07T01:47:14.479Z,2.60
2022-08-07T01:50:32.799Z,3.00
2022-08-07T01:54:09.370Z,2.72
2022-08-07T01:57:27.032Z,2.85
2022-08-07T02:00:31.529Z,2.70
2022-08-07T02:03:48.823Z,2.50
2022-08-07T02:06:54.297Z,2.70
2022-08-07T02:09:59.027Z,2.58
2022-08-07T02:13:03.541Z,2.50
2022-08-07T02:16:15.149Z,2.90
2022-08-07T02:20:06.829Z,2.67
2022-08-07T02:22:43.856Z,2.63
2022-08-07T02:26:30.397Z,2.95
2022-08-07T02:29:13.643Z,2.70
2022-08-07T02:32:18.808Z,2.60
2022-08-07T02:36:28.987Z,2.63
2022-08-07T02:38:51.024Z,2.70
2022-08-07T02:42:01.599Z,2.33
2022-08-07T02:45:07.281Z,2.60
2022-08-07T02:48:31.483Z,2.50
2022-08-07T02:51:42.717Z,2.30
2022-08-07T02:54:53.469Z,2.35
2022-08-07T02:57:59.159Z,2.28
2022-08-07T03:01:03.542Z,2.15
2022-08-07T03:04:12.572Z,2.20
2022-08-07T03:07:17.444Z,2.10
2022-08-07T03:10:25.862Z,2.00
2022-08-07T03:13:29.982Z,2.05
2022-08-07T03:16:44.734Z,2.47
2022-08-07T03:19:54.830Z,2.30
2022-08-07T03:22:59.896Z,1.77
2022-08-07T03:26:02.897Z,2.00
2022-08-07T03:29:11.034Z,2.60
2022-08-07T03:32:15.818Z,2.17
2022-08-07T03:35:26.259Z,2.00
2022-08-07T03:38:33.294Z,2.10
2022-08-07T03:41:42.261Z,2.13
2022-08-07T03:44:53.433Z,2.05
2022-08-07T03:48:01.157Z,2.05
2022-08-07T03:51:04.962Z,1.83
2022-08-07T03:54:35.589Z,2.00
2022-08-07T03:58:34.691Z,1.75
2022-08-07T04:01:11.712Z,2.08
2022-08-07T04:04:18.238Z,2.20
2022-08-07T04:07:25.722Z,1.90
2022-08-07T04:10:42.431Z,2.20
2022-08-07T04:14:32.926Z,1.90
2022-08-07T04:17:20.258Z,2.17
2022-08-07T04:20:26.516Z,2.03
2022-08-07T04:23:43.335Z,1.63
2022-08-07T04:26:54.814Z,2.20
2022-08-07T04:30:02.647Z,1.90
2022-08-07T04:33:19.940Z,1.80
2022-08-07T04:36:27.223Z,1.92
2022-08-07T04:39:35.909Z,1.95
2022-08-07T04:42:40.309Z,1.87
2022-08-07T04:46:01.235Z,1.73
2022-08-07T04:49:30.284Z,1.80
2022-08-07T04:52:54.012Z,1.80
2022-08-07T04:58:13.249Z,1.88
2022-08-07T05:00:11.340Z,1.70
2022-08-07T05:04:06.865Z,1.90
2022-08-07T05:06:53.422Z,1.65
2022-08-07T05:10:07.968Z,1.35
2022-08-07T05:14:52.438Z,1.80
2022-08-07T05:16:52.910Z,1.87
2022-08-07T05:19:56.194Z,1.83
2022-08-07T05:23:15.354Z,1.58
2022-08-07T05:26:24.211Z,1.65
2022-08-07T05:29:39.020Z,1.63
2022-08-07T05:32:54.392Z,1.60
2022-08-07T05:35:57.567Z,1.52
2022-08-07T05:40:05.030Z,1.70
2022-08-07T05:42:34.747Z,1.80
2022-08-07T05:45:47.706Z,2.10
2022-08-07T05:48:58.275Z,2.03
2022-08-07T05:52:04.895Z,2.00
2022-08-07T05:55:10.542Z,2.10
2022-08-07T05:58:16.716Z,1.55
2022-08-07T06:01:20.773Z,1.80
2022-08-07T06:04:26.375Z,1.60
2022-08-07T06:08:12.339Z,1.70
2022-08-07T06:10:59.110Z,1.60
2022-08-07T06:14:12.999Z,1.83
2022-08-07T06:17:30.632Z,1.83
2022-08-07T06:20:50.276Z,2.00
2022-08-07T06:24:38.325Z,1.67
2022-08-07T06:27:43.961Z,1.70
2022-08-07T06:30:50.784Z,2.00
2022-08-07T06:33:57.650Z,2.00
2022-08-07T06:37:08.625Z,2.03
2022-08-07T06:40:20.761Z,1.75
2022-08-07T06:43:26.969Z,2.28
2022-08-07T06:46:53.633Z,1.65
2022-08-07T06:50:11.106Z,1.70
2022-08-07T06:53:49.111Z,1.80
2022-08-07T06:56:49.316Z,1.85
2022-08-07T07:00:11.706Z,2.00
2022-08-07T07:03:18.007Z,2.08
2022-08-07T07:06:23.785Z,1.85
2022-08-07T07:09:31.680Z,1.63
2022-08-07T07:12:48.419Z,2.10
2022-08-07T07:15:55.378Z,1.73
2022-08-07T07:19:11.215Z,1.88
2022-08-07T07:22:36.930Z,2.03
2022-08-07T07:26:34.582Z,1.90
2022-08-07T07:29:40.687Z,1.50
2022-08-07T07:32:38.879Z,1.92
2022-08-07T07:36:04.900Z,1.67
2022-08-07T07:39:08.888Z,2.10
2022-08-07T07:42:14.027Z,1.83
2022-08-07T07:45:22.799Z,2.08
2022-08-07T07:48:45.612Z,1.75
2022-08-07T07:51:57.841Z,1.58
2022-08-07T07:55:03.388Z,2.33
2022-08-07T07:58:06.540Z,1.80
2022-08-07T08:02:01.571Z,1.70
2022-08-07T08:04:33.748Z,1.50
2022-08-07T08:07:42.427Z,1.55
2022-08-07T08:10:55.052Z,1.90
2022-08-07T08:13:59.167Z,1.80
2022-08-07T08:17:55.709Z,1.83
2022-08-07T08:20:31.874Z,1.80
2022-08-07T08:23:53.763Z,1.80
2022-08-07T08:27:09.325Z,1.92
2022-08-07T08:30:17.371Z,1.87
2022-08-07T08:33:23.088Z,1.80
2022-08-07T08:36:29.702Z,1.90
2022-08-07T08:39:39.789Z,2.20
2022-08-07T08:42:57.445Z,2.03
2022-08-07T08:46:08.872Z,2.07
2022-08-07T08:49:46.693Z,1.85
2022-08-07T08:53:03.927Z,2.20
2022-08-07T08:56:12.247Z,1.92
2022-08-07T08:59:42.352Z,1.92
2022-08-07T09:03:00.817Z,1.97
2022-08-07T09:06:21.589Z,2.17
2022-08-07T09:10:03.326Z,2.42
2022-08-07T09:13:10.973Z,2.15
2022-08-07T09:16:23.931Z,2.17
2022-08-07T09:19:52.041Z,2.20
2022-08-07T09:24:32.710Z,2.05
2022-08-07T09:26:51.186Z,3.40
2022-08-07T09:30:03.470Z,2.42
2022-08-07T09:33:41.203Z,2.10
2022-08-07T09:37:10.931Z,2.17
2022-08-07T09:40:43.626Z,2.35
2022-08-07T09:44:40.080Z,2.20
2022-08-07T09:48:01.384Z,2.70
2022-08-07T09:52:10.296Z,2.85
2022-08-07T09:54:55.036Z,1.90
2022-08-07T09:58:21.040Z,2.47
2022-08-07T10:01:51.064Z,2.35
2022-08-07T10:05:59.406Z,2.63
2022-08-07T10:09:16.238Z,2.40
2022-08-07T10:12:54.335Z,2.40
2022-08-07T10:16:12.239Z,2.35
2022-08-07T10:19:53.540Z,2.80
2022-08-07T10:24:05.544Z,2.83
2022-08-07T10:26:53.205Z,2.17
2022-08-07T10:29:56.582Z,2.70
2022-08-07T10:34:13.928Z,2.60
2022-08-07T10:37:48.376Z,2.58
2022-08-07T10:40:57.760Z,2.58
2022-08-07T10:44:13.090Z,3.10
2022-08-07T10:47:31.106Z,2.37
2022-08-07T10:50:57.520Z,2.70
2022-08-07T10:54:12.277Z,2.70
2022-08-07T10:57:37.228Z,3.20
2022-08-07T11:01:11.385Z,2.65
2022-08-07T11:04:32.262Z,2.50
2022-08-07T11:07:58.605Z,2.90
2022-08-07T11:11:04.448Z,2.85
2022-08-07T11:14:57.561Z,2.60
2022-08-07T11:18:04.667Z,2.90
2022-08-07T11:21:14.102Z,2.60
2022-08-07T11:24:23.017Z,2.70
2022-08-07T11:28:04.402Z,2.65
2022-08-07T11:31:52.702Z,2.67
2022-08-07T11:35:01.321Z,2.92
2022-08-07T11:38:21.297Z,2.93
2022-08-07T11:42:00.170Z,2.85
2022-08-07T11:45:35.592Z,3.20
2022-08-07T11:49:50.090Z,3.20
2022-08-07T11:52:47.325Z,3.05
2022-08-07T11:56:27.133Z,3.00
2022-08-07T12:00:10.021Z,3.30
2022-08-07T12:03:41.457Z,3.10
2022-08-07T12:07:09.015Z,3.28
2022-08-07T12:10:27.822Z,3.45
2022-08-07T12:13:47.506Z,4.03
2022-08-07T12:17:08.733Z,3.92
2022-08-07T12:20:36.334Z,4.40
2022-08-07T12:24:07.449Z,3.85
2022-08-07T12:27:16.240Z,3.72
2022-08-07T12:30:19.829Z,3.93
2022-08-07T12:33:55.886Z,3.80
2022-08-07T12:36:51.220Z,3.50
2022-08-07T12:39:54.321Z,4.03
2022-08-07T12:43:09.608Z,3.05
2022-08-07T12:46:41.409Z,3.30
2022-08-07T12:49:53.330Z,3.28
2022-08-07T12:53:17.821Z,3.90
2022-08-07T12:56:40.142Z,4.20
2022-08-07T12:59:55.522Z,3.75
2022-08-07T13:03:13.109Z,3.70
2022-08-07T13:07:01.315Z,3.88
2022-08-07T13:10:28.791Z,3.88
2022-08-07T13:13:53.800Z,3.38
2022-08-07T13:17:40.647Z,3.38
2022-08-07T13:20:46.628Z,3.77
2022-08-07T13:24:35.458Z,3.50
2022-08-07T13:28:11.411Z,3.03
2022-08-07T13:31:57.213Z,3.55
2022-08-07T13:35:08.739Z,3.40
2022-08-07T13:38:27.663Z,3.40
2022-08-07T13:41:41.409Z,3.60
2022-08-07T13:44:44.802Z,3.45
2022-08-07T13:48:10.333Z,3.58
2022-08-07T13:51:28.303Z,3.63
2022-08-07T13:54:49.392Z,3.27
2022-08-07T13:58:48.364Z,3.45
2022-08-07T14:02:15.058Z,3.10
2022-08-07T14:05:22.126Z,3.58
2022-08-07T14:08:25.410Z,3.75
2022-08-07T14:11:59.975Z,3.30
2022-08-07T14:15:00.402Z,3.25
2022-08-07T14:18:29.116Z,3.03
2022-08-07T14:22:03.205Z,3.78
2022-08-07T14:25:18.486Z,3.33
2022-08-07T14:28:33.286Z,3.00
2022-08-07T14:31:56.597Z,3.20
2022-08-07T14:35:04.074Z,3.10
2022-08-07T14:38:07.638Z,3.10
2022-08-07T14:41:14.972Z,2.90
2022-08-07T14:44:19.012Z,3.37
2022-08-07T14:47:23.350Z,3.10
2022-08-07T14:50:37.439Z,3.08
2022-08-07T14:54:09.847Z,2.63
2022-08-07T14:57:10.052Z,2.90
2022-08-07T15:00:30.270Z,2.63
2022-08-07T15:03:53.017Z,2.65
2022-08-07T15:06:56.510Z,2.97
2022-08-07T15:10:04.996Z,2.60
2022-08-07T15:13:23.341Z,3.00
2022-08-07T15:16:55.133Z,2.87
2022-08-07T15:25:02.476Z,3.67
2022-08-07T15:27:15.428Z,2.70
2022-08-07T15:30:18.585Z,2.92
2022-08-07T15:33:22.473Z,2.90
2022-08-07T15:37:04.097Z,3.00
2022-08-07T15:40:11.235Z,3.00
2022-08-07T15:43:33.222Z,2.90
2022-08-07T15:46:51.799Z,3.03
2022-08-07T15:50:05.884Z,2.67
2022-08-07T15:53:13.166Z,3.58
2022-08-07T15:56:16.941Z,3.00
2022-08-07T15:59:20.351Z,3.47
2022-08-07T16:02:46.881Z,3.03
2022-08-07T16:05:50.616Z,2.90
2022-08-07T16:08:54.841Z,2.58
2022-08-07T16:12:12.197Z,2.63
2022-08-07T16:15:55.066Z,2.70
2022-08-07T16:19:09.621Z,3.50
2022-08-07T16:22:36.394Z,3.00
2022-08-07T16:26:01.952Z,3.13
2022-08-07T16:30:10.940Z,3.10
2022-08-07T16:34:02.072Z,2.97
2022-08-07T16:37:01.914Z,3.03
2022-08-07T16:40:30.765Z,3.30
2022-08-07T16:44:05.759Z,3.85
2022-08-07T16:47:56.846Z,4.75
2022-08-07T16:52:01.722Z,3.63
2022-08-07T16:55:11.398Z,3.40
2022-08-07T16:59:10.173Z,3.43
2022-08-07T17:02:51.163Z,3.72
2022-08-07T17:06:28.651Z,3.80
2022-08-07T17:10:06.224Z,3.10
2022-08-07T17:13:20.456Z,3.58
2022-08-07T17:16:43.622Z,3.23
2022-08-07T17:20:02.990Z,3.30
2022-08-07T17:23:32.662Z,3.42
2022-08-07T17:26:51.343Z,3.22
2022-08-07T17:30:15.563Z,3.53
2022-08-07T17:34:09.107Z,3.23
2022-08-07T17:36:59.782Z,3.38
2022-08-07T17:40:55.654Z,3.30
2022-08-07T17:44:06.506Z,3.38
2022-08-07T17:47:38.115Z,3.60
2022-08-07T17:51:01.636Z,3.40
2022-08-07T17:54:14.203Z,3.35
2022-08-07T17:57:58.560Z,3.13
2022-08-07T18:01:18.038Z,3.30
2022-08-07T18:04:34.526Z,3.50
2022-08-07T18:07:44.819Z,3.03
2022-08-07T18:12:07.105Z,2.97
2022-08-07T18:14:48.634Z,3.17
2022-08-07T18:18:46.848Z,2.95
2022-08-07T18:22:03.669Z,3.78
2022-08-07T18:25:24.301Z,2.97
2022-08-07T18:28:58.622Z,3.15
2022-08-07T18:32:26.348Z,2.92
2022-08-07T18:35:51.812Z,3.00
2022-08-07T18:40:05.093Z,3.10
2022-08-07T18:43:09.533Z,3.23
2022-08-07T18:46:27.227Z,3.35
2022-08-07T18:50:32.730Z,3.50
2022-08-07T18:53:22.516Z,3.00
2022-08-07T18:57:06.164Z,2.60
2022-08-07T19:00:32.662Z,2.60
2022-08-07T19:03:52.187Z,2.60
2022-08-07T19:06:57.909Z,2.47
2022-08-07T19:10:18.273Z,2.60
2022-08-07T19:13:27.751Z,2.70
2022-08-07T19:17:04.871Z,2.70
2022-08-07T19:20:29.159Z,2.70
2022-08-07T19:23:58.666Z,2.50
2022-08-07T19:28:29.287Z,2.47
2022-08-07T19:30:57.443Z,2.60
2022-08-07T19:33:58.255Z,2.30
2022-08-07T19:37:10.274Z,2.15
2022-08-07T19:40:31.060Z,2.45
2022-08-07T19:43:45.192Z,1.92
2022-08-07T19:47:03.413Z,2.53
2022-08-07T19:50:42.964Z,2.00
2022-08-07T19:54:33.258Z,1.88
2022-08-07T19:58:03.261Z,2.10
2022-08-07T20:00:28.944Z,2.10
2022-08-07T20:03:35.769Z,2.30
2022-08-07T20:06:43.114Z,2.20
2022-08-07T20:10:36.999Z,2.42
2022-08-07T20:13:23.881Z,2.00
2022-08-07T20:16:35.719Z,2.30
2022-08-07T20:19:49.327Z,2.30
2022-08-07T20:23:10.768Z,2.30
2022-08-07T20:26:38.737Z,2.40
2022-08-07T20:29:58.497Z,2.60
2022-08-07T20:33:04.957Z,2.15
2022-08-07T20:36:13.229Z,1.92
2022-08-07T20:40:01.297Z,2.10
2022-08-07T20:42:47.360Z,2.20
2022-08-07T20:46:25.667Z,1.85
2022-08-07T20:49:59.231Z,1.95
2022-08-07T20:52:51.131Z,2.00
2022-08-07T20:55:58.671Z,1.93
2022-08-07T20:59:05.059Z,1.70
2022-08-07T21:02:55.157Z,2.00
2022-08-07T21:06:22.322Z,2.08
2022-08-07T21:09:51.788Z,2.13
2022-08-07T21:12:57.974Z,2.23
2022-08-07T21:16:03.471Z,2.17
2022-08-07T21:19:09.110Z,2.03
2022-08-07T21:22:14.794Z,2.10
2022-08-07T21:25:29.077Z,1.95
2022-08-07T21:28:49.873Z,2.80
2022-08-07T21:32:47.152Z,2.22
2022-08-07T21:36:04.999Z,2.05
2022-08-07T21:39:44.900Z,1.70
2022-08-07T21:42:56.287Z,1.92
2022-08-07T21:46:10.419Z,2.20
2022-08-07T21:50:01.885Z,1.98
2022-08-07T21:53:32.601Z,2.00
2022-08-07T21:57:30.915Z,2.00
2022-08-07T22:00:38.049Z,2.03
2022-08-07T22:04:12.410Z,1.63
2022-08-07T22:07:31.809Z,2.15
2022-08-07T22:10:55.895Z,2.25
2022-08-07T22:13:58.896Z,2.33
2022-08-07T22:17:10.267Z,1.70
2022-08-07T22:20:41.090Z,2.07
2022-08-07T22:23:57.517Z,2.10
2022-08-07T22:27:34.023Z,2.28
2022-08-07T22:31:05.337Z,1.90
2022-08-07T22:34:28.647Z,1.90
2022-08-07T22:38:02.931Z,1.73
2022-08-07T22:41:19.913Z,2.30
2022-08-07T22:44:23.273Z,2.17
2022-08-07T22:47:49.419Z,2.40
2022-08-07T22:51:04.329Z,2.17
2022-08-07T22:54:29.186Z,2.43
2022-08-07T22:57:44.577Z,2.35
2022-08-07T23:01:10.483Z,2.00
2022-08-07T23:04:30.064Z,2.45
2022-08-07T23:07:58.070Z,2.10
2022-08-07T23:11:44.344Z,2.20
2022-08-07T23:14:54.732Z,1.90
2022-08-07T23:18:15.526Z,2.70
2022-08-07T23:21:29.946Z,2.10
2022-08-07T23:25:01.182Z,2.05
2022-08-07T23:28:33.294Z,2.20
2022-08-07T23:34:20.880Z,2.05
2022-08-07T23:35:23.656Z,2.40
2022-08-07T23:39:09.555Z,2.25
2022-08-07T23:42:39.515Z,2.30
2022-08-07T23:46:03.481Z,1.97
2022-08-07T23:49:47.488Z,2.10
2022-08-07T23:53:49.550Z,2.10
2022-08-07T23:57:14.084Z,2.60
